sensor_id;sensor_type;location;lat;lon;timestamp;P1;durP1;ratioP1;P2;durP2;ratioP2
40433;SDS011;26146;51.114;5.654;2023-02-12T00:00:28;47.60;;;22.17;;
40433;SDS011;26146;51.114;5.654;2023-02-12T00:04:29;49.57;;;21.83;;
40433;SDS011;26146;51.114;5.654;2023-02-12T00:08:30;47.90;;;21.97;;
40433;SDS011;26146;51.114;5.654;2023-02-12T00:12:33;49.20;;;22.97;;
40433;SDS011;26146;51.114;5.654;2023-02-12T00:16:34;52.33;;;23.17;;
40433;SDS011;26146;51.114;5.654;2023-02-12T00:20:36;46.47;;;21.87;;
40433;SDS011;26146;51.114;5.654;2023-02-12T00:24:38;48.47;;;22.57;;
40433;SDS011;26146;51.114;5.654;2023-02-12T00:28:38;49.40;;;22.27;;
40433;SDS011;26146;51.114;5.654;2023-02-12T00:32:42;46.10;;;22.10;;
40433;SDS011;26146;51.114;5.654;2023-02-12T00:36:44;46.78;;;22.63;;
40433;SDS011;26146;51.114;5.654;2023-02-12T00:40:45;46.60;;;22.53;;
40433;SDS011;26146;51.114;5.654;2023-02-12T00:44:46;48.73;;;23.37;;
40433;SDS011;26146;51.114;5.654;2023-02-12T00:48:47;47.93;;;22.10;;
40433;SDS011;26146;51.114;5.654;2023-02-12T00:52:50;43.90;;;22.20;;
40433;SDS011;26146;51.114;5.654;2023-02-12T00:56:51;47.07;;;21.77;;
40433;SDS011;26146;51.114;5.654;2023-02-12T01:00:52;43.77;;;22.07;;
40433;SDS011;26146;51.114;5.654;2023-02-12T01:04:56;44.30;;;21.57;;
40433;SDS011;26146;51.114;5.654;2023-02-12T01:08:59;46.73;;;21.60;;
40433;SDS011;26146;51.114;5.654;2023-02-12T01:13:01;44.90;;;21.03;;
40433;SDS011;26146;51.114;5.654;2023-02-12T01:17:02;46.70;;;22.00;;
40433;SDS011;26146;51.114;5.654;2023-02-12T01:21:13;46.97;;;22.53;;
40433;SDS011;26146;51.114;5.654;2023-02-12T01:25:22;47.43;;;21.67;;
40433;SDS011;26146;51.114;5.654;2023-02-12T01:29:23;50.73;;;22.30;;
40433;SDS011;26146;51.114;5.654;2023-02-12T01:33:27;46.53;;;21.90;;
40433;SDS011;26146;51.114;5.654;2023-02-12T01:37:28;48.13;;;22.80;;
40433;SDS011;26146;51.114;5.654;2023-02-12T01:41:31;47.97;;;22.10;;
40433;SDS011;26146;51.114;5.654;2023-02-12T01:49:44;50.27;;;22.50;;
40433;SDS011;26146;51.114;5.654;2023-02-12T01:53:48;51.10;;;23.43;;
40433;SDS011;26146;51.114;5.654;2023-02-12T01:57:52;53.80;;;24.67;;
40433;SDS011;26146;51.114;5.654;2023-02-12T02:01:53;52.03;;;23.17;;
40433;SDS011;26146;51.114;5.654;2023-02-12T02:05:55;50.47;;;22.20;;
40433;SDS011;26146;51.114;5.654;2023-02-12T02:10:01;51.90;;;23.43;;
40433;SDS011;26146;51.114;5.654;2023-02-12T02:14:02;54.57;;;22.63;;
40433;SDS011;26146;51.114;5.654;2023-02-12T02:18:23;52.83;;;23.40;;
40433;SDS011;26146;51.114;5.654;2023-02-12T02:40:25;48.83;;;23.30;;
40433;SDS011;26146;51.114;5.654;2023-02-12T02:44:40;54.70;;;25.10;;
40433;SDS011;26146;51.114;5.654;2023-02-12T02:48:52;58.03;;;24.20;;
40433;SDS011;26146;51.114;5.654;2023-02-12T02:53:13;51.97;;;24.40;;
40433;SDS011;26146;51.114;5.654;2023-02-12T02:57:25;52.60;;;23.47;;
40433;SDS011;26146;51.114;5.654;2023-02-12T03:01:38;55.53;;;25.27;;
40433;SDS011;26146;51.114;5.654;2023-02-12T03:05:45;57.00;;;25.47;;
40433;SDS011;26146;51.114;5.654;2023-02-12T03:18:00;56.53;;;24.77;;
40433;SDS011;26146;51.114;5.654;2023-02-12T03:22:08;56.90;;;25.63;;
40433;SDS011;26146;51.114;5.654;2023-02-12T03:26:18;61.90;;;25.70;;
40433;SDS011;26146;51.114;5.654;2023-02-12T03:30:42;51.85;;;24.35;;
40433;SDS011;26146;51.114;5.654;2023-02-12T03:35:06;54.13;;;24.77;;
40433;SDS011;26146;51.114;5.654;2023-02-12T03:39:16;59.70;;;25.83;;
40433;SDS011;26146;51.114;5.654;2023-02-12T03:48:02;57.80;;;25.73;;
40433;SDS011;26146;51.114;5.654;2023-02-12T03:52:21;58.03;;;26.00;;
40433;SDS011;26146;51.114;5.654;2023-02-12T03:56:26;56.60;;;25.50;;
40433;SDS011;26146;51.114;5.654;2023-02-12T04:00:41;52.83;;;25.67;;
40433;SDS011;26146;51.114;5.654;2023-02-12T04:04:43;57.67;;;25.80;;
40433;SDS011;26146;51.114;5.654;2023-02-12T04:08:45;58.17;;;25.90;;
40433;SDS011;26146;51.114;5.654;2023-02-12T04:12:53;58.60;;;26.70;;
40433;SDS011;26146;51.114;5.654;2023-02-12T04:16:59;57.73;;;26.03;;
40433;SDS011;26146;51.114;5.654;2023-02-12T04:33:51;62.60;;;25.60;;
40433;SDS011;26146;51.114;5.654;2023-02-12T04:42:03;59.53;;;26.13;;
40433;SDS011;26146;51.114;5.654;2023-02-12T04:46:05;59.40;;;25.80;;
40433;SDS011;26146;51.114;5.654;2023-02-12T04:50:09;55.80;;;25.33;;
40433;SDS011;26146;51.114;5.654;2023-02-12T04:54:10;61.37;;;26.20;;
40433;SDS011;26146;51.114;5.654;2023-02-12T04:58:12;56.33;;;24.57;;
40433;SDS011;26146;51.114;5.654;2023-02-12T05:02:16;53.97;;;23.80;;
40433;SDS011;26146;51.114;5.654;2023-02-12T05:06:17;53.63;;;24.10;;
40433;SDS011;26146;51.114;5.654;2023-02-12T05:10:18;56.70;;;25.93;;
40433;SDS011;26146;51.114;5.654;2023-02-12T05:14:19;56.17;;;25.60;;
40433;SDS011;26146;51.114;5.654;2023-02-12T05:18:23;54.53;;;25.00;;
40433;SDS011;26146;51.114;5.654;2023-02-12T05:22:26;56.33;;;24.50;;
40433;SDS011;26146;51.114;5.654;2023-02-12T05:26:27;56.50;;;24.73;;
40433;SDS011;26146;51.114;5.654;2023-02-12T05:30:28;56.97;;;25.30;;
40433;SDS011;26146;51.114;5.654;2023-02-12T05:34:29;55.93;;;24.10;;
40433;SDS011;26146;51.114;5.654;2023-02-12T05:38:30;52.57;;;23.50;;
40433;SDS011;26146;51.114;5.654;2023-02-12T05:42:31;55.87;;;24.60;;
40433;SDS011;26146;51.114;5.654;2023-02-12T05:46:32;53.27;;;24.17;;
40433;SDS011;26146;51.114;5.654;2023-02-12T05:50:33;56.87;;;24.47;;
40433;SDS011;26146;51.114;5.654;2023-02-12T05:54:34;54.27;;;24.67;;
40433;SDS011;26146;51.114;5.654;2023-02-12T05:58:40;54.83;;;24.40;;
40433;SDS011;26146;51.114;5.654;2023-02-12T06:02:43;50.87;;;23.53;;
40433;SDS011;26146;51.114;5.654;2023-02-12T06:06:44;51.30;;;23.40;;
40433;SDS011;26146;51.114;5.654;2023-02-12T06:10:45;52.47;;;24.10;;
40433;SDS011;26146;51.114;5.654;2023-02-12T06:14:48;52.00;;;23.37;;
40433;SDS011;26146;51.114;5.654;2023-02-12T06:18:52;52.93;;;23.47;;
40433;SDS011;26146;51.114;5.654;2023-02-12T06:22:54;58.13;;;23.67;;
40433;SDS011;26146;51.114;5.654;2023-02-12T06:26:55;48.77;;;22.50;;
40433;SDS011;26146;51.114;5.654;2023-02-12T06:30:56;50.03;;;23.23;;
40433;SDS011;26146;51.114;5.654;2023-02-12T06:34:57;55.87;;;24.07;;
40433;SDS011;26146;51.114;5.654;2023-02-12T06:38:59;54.17;;;23.57;;
40433;SDS011;26146;51.114;5.654;2023-02-12T06:43:02;56.73;;;24.20;;
40433;SDS011;26146;51.114;5.654;2023-02-12T06:47:03;50.03;;;22.97;;
40433;SDS011;26146;51.114;5.654;2023-02-12T06:51:04;54.73;;;24.17;;
40433;SDS011;26146;51.114;5.654;2023-02-12T06:55:09;49.10;;;23.50;;
40433;SDS011;26146;51.114;5.654;2023-02-12T06:59:14;54.10;;;24.40;;
40433;SDS011;26146;51.114;5.654;2023-02-12T07:03:16;54.77;;;24.43;;
40433;SDS011;26146;51.114;5.654;2023-02-12T07:07:17;49.47;;;23.60;;
40433;SDS011;26146;51.114;5.654;2023-02-12T07:11:19;50.53;;;22.80;;
40433;SDS011;26146;51.114;5.654;2023-02-12T07:15:26;51.17;;;22.53;;
40433;SDS011;26146;51.114;5.654;2023-02-12T07:19:27;50.17;;;23.73;;
40433;SDS011;26146;51.114;5.654;2023-02-12T07:23:28;48.70;;;23.37;;
40433;SDS011;26146;51.114;5.654;2023-02-12T07:27:29;49.93;;;22.87;;
40433;SDS011;26146;51.114;5.654;2023-02-12T07:31:30;52.23;;;23.80;;
40433;SDS011;26146;51.114;5.654;2023-02-12T07:35:31;51.17;;;22.90;;
40433;SDS011;26146;51.114;5.654;2023-02-12T07:39:32;51.13;;;23.50;;
40433;SDS011;26146;51.114;5.654;2023-02-12T07:43:33;49.10;;;23.27;;
40433;SDS011;26146;51.114;5.654;2023-02-12T07:47:34;50.87;;;22.93;;
40433;SDS011;26146;51.114;5.654;2023-02-12T07:51:37;50.50;;;22.43;;
40433;SDS011;26146;51.114;5.654;2023-02-12T07:55:38;46.77;;;21.50;;
40433;SDS011;26146;51.114;5.654;2023-02-12T07:59:39;51.50;;;23.63;;
40433;SDS011;26146;51.114;5.654;2023-02-12T08:03:43;67.23;;;29.73;;
40433;SDS011;26146;51.114;5.654;2023-02-12T08:07:45;82.10;;;33.63;;
40433;SDS011;26146;51.114;5.654;2023-02-12T08:11:46;65.57;;;29.10;;
40433;SDS011;26146;51.114;5.654;2023-02-12T08:15:47;53.50;;;24.43;;
40433;SDS011;26146;51.114;5.654;2023-02-12T08:19:48;55.93;;;24.47;;
40433;SDS011;26146;51.114;5.654;2023-02-12T08:23:50;63.83;;;26.90;;
40433;SDS011;26146;51.114;5.654;2023-02-12T08:27:52;57.57;;;27.03;;
40433;SDS011;26146;51.114;5.654;2023-02-12T08:31:54;55.10;;;26.17;;
40433;SDS011;26146;51.114;5.654;2023-02-12T08:36:00;58.37;;;29.13;;
40433;SDS011;26146;51.114;5.654;2023-02-12T08:40:06;56.17;;;28.40;;
40433;SDS011;26146;51.114;5.654;2023-02-12T08:44:08;55.13;;;27.93;;
40433;SDS011;26146;51.114;5.654;2023-02-12T08:48:12;48.92;;;26.20;;
40433;SDS011;26146;51.114;5.654;2023-02-12T08:52:13;43.23;;;21.53;;
40433;SDS011;26146;51.114;5.654;2023-02-12T08:56:15;48.87;;;23.10;;
40433;SDS011;26146;51.114;5.654;2023-02-12T09:00:17;46.10;;;21.63;;
40433;SDS011;26146;51.114;5.654;2023-02-12T09:04:20;51.70;;;24.40;;
40433;SDS011;26146;51.114;5.654;2023-02-12T09:08:23;49.03;;;24.00;;
40433;SDS011;26146;51.114;5.654;2023-02-12T09:12:24;53.70;;;24.53;;
40433;SDS011;26146;51.114;5.654;2023-02-12T09:16:26;53.50;;;24.73;;
40433;SDS011;26146;51.114;5.654;2023-02-12T09:20:28;48.90;;;23.67;;
40433;SDS011;26146;51.114;5.654;2023-02-12T09:24:30;49.33;;;23.17;;
40433;SDS011;26146;51.114;5.654;2023-02-12T09:28:31;45.10;;;22.03;;
40433;SDS011;26146;51.114;5.654;2023-02-12T09:32:32;45.00;;;22.40;;
40433;SDS011;26146;51.114;5.654;2023-02-12T09:36:33;41.87;;;20.90;;
40433;SDS011;26146;51.114;5.654;2023-02-12T09:44:47;39.63;;;19.67;;
40433;SDS011;26146;51.114;5.654;2023-02-12T09:53:12;37.97;;;19.30;;
40433;SDS011;26146;51.114;5.654;2023-02-12T09:57:18;38.70;;;19.17;;
40433;SDS011;26146;51.114;5.654;2023-02-12T10:01:28;39.53;;;19.53;;
40433;SDS011;26146;51.114;5.654;2023-02-12T10:05:35;39.43;;;19.93;;
40433;SDS011;26146;51.114;5.654;2023-02-12T10:22:07;40.93;;;20.00;;
40433;SDS011;26146;51.114;5.654;2023-02-12T10:26:36;36.80;;;19.97;;
40433;SDS011;26146;51.114;5.654;2023-02-12T10:35:01;39.30;;;20.57;;
40433;SDS011;26146;51.114;5.654;2023-02-12T10:39:18;38.85;;;19.83;;
40433;SDS011;26146;51.114;5.654;2023-02-12T10:43:28;40.33;;;20.13;;
40433;SDS011;26146;51.114;5.654;2023-02-12T10:47:32;40.87;;;19.40;;
40433;SDS011;26146;51.114;5.654;2023-02-12T11:04:25;33.63;;;17.07;;
40433;SDS011;26146;51.114;5.654;2023-02-12T11:12:39;38.72;;;18.42;;
40433;SDS011;26146;51.114;5.654;2023-02-12T11:16:57;36.00;;;18.80;;
40433;SDS011;26146;51.114;5.654;2023-02-12T11:25:09;36.75;;;19.08;;
40433;SDS011;26146;51.114;5.654;2023-02-12T11:29:18;37.33;;;19.10;;
40433;SDS011;26146;51.114;5.654;2023-02-12T11:37:29;37.37;;;19.07;;
40433;SDS011;26146;51.114;5.654;2023-02-12T11:41:37;35.77;;;18.73;;
40433;SDS011;26146;51.114;5.654;2023-02-12T11:45:44;39.15;;;18.73;;
40433;SDS011;26146;51.114;5.654;2023-02-12T11:49:53;41.50;;;19.53;;
40433;SDS011;26146;51.114;5.654;2023-02-12T11:54:14;47.40;;;23.90;;
40433;SDS011;26146;51.114;5.654;2023-02-12T11:58:21;37.60;;;19.40;;
40433;SDS011;26146;51.114;5.654;2023-02-12T12:02:32;39.07;;;19.50;;
40433;SDS011;26146;51.114;5.654;2023-02-12T12:10:56;34.57;;;18.00;;
40433;SDS011;26146;51.114;5.654;2023-02-12T12:15:16;34.77;;;17.67;;
40433;SDS011;26146;51.114;5.654;2023-02-12T12:19:57;35.63;;;17.33;;
40433;SDS011;26146;51.114;5.654;2023-02-12T12:28:05;34.90;;;17.77;;
40433;SDS011;26146;51.114;5.654;2023-02-12T12:32:28;34.83;;;17.42;;
40433;SDS011;26146;51.114;5.654;2023-02-12T13:20:36;37.03;;;18.23;;
40433;SDS011;26146;51.114;5.654;2023-02-12T13:29:16;37.03;;;18.70;;
40433;SDS011;26146;51.114;5.654;2023-02-12T13:33:21;38.80;;;17.98;;
40433;SDS011;26146;51.114;5.654;2023-02-12T13:37:40;40.60;;;20.00;;
40433;SDS011;26146;51.114;5.654;2023-02-12T13:41:52;39.00;;;19.10;;
40433;SDS011;26146;51.114;5.654;2023-02-12T14:03:32;39.27;;;19.20;;
40433;SDS011;26146;51.114;5.654;2023-02-12T14:07:44;39.83;;;19.77;;
40433;SDS011;26146;51.114;5.654;2023-02-12T14:11:49;39.47;;;18.67;;
40433;SDS011;26146;51.114;5.654;2023-02-12T14:15:53;37.53;;;18.83;;
40433;SDS011;26146;51.114;5.654;2023-02-12T14:19:56;41.67;;;19.53;;
40433;SDS011;26146;51.114;5.654;2023-02-12T14:33:22;39.60;;;18.43;;
40433;SDS011;26146;51.114;5.654;2023-02-12T14:37:32;40.03;;;19.57;;
40433;SDS011;26146;51.114;5.654;2023-02-12T14:41:36;38.47;;;18.70;;
40433;SDS011;26146;51.114;5.654;2023-02-12T14:45:40;39.20;;;19.25;;
40433;SDS011;26146;51.114;5.654;2023-02-12T14:49:45;41.57;;;19.50;;
40433;SDS011;26146;51.114;5.654;2023-02-12T14:53:49;41.63;;;19.50;;
40433;SDS011;26146;51.114;5.654;2023-02-12T14:57:57;40.67;;;18.83;;
40433;SDS011;26146;51.114;5.654;2023-02-12T15:02:04;39.47;;;18.80;;
40433;SDS011;26146;51.114;5.654;2023-02-12T15:10:18;40.40;;;18.33;;
40433;SDS011;26146;51.114;5.654;2023-02-12T15:14:39;38.90;;;18.90;;
40433;SDS011;26146;51.114;5.654;2023-02-12T15:18:50;42.63;;;20.20;;
40433;SDS011;26146;51.114;5.654;2023-02-12T15:23:01;41.73;;;19.53;;
40433;SDS011;26146;51.114;5.654;2023-02-12T15:27:22;42.17;;;20.00;;
40433;SDS011;26146;51.114;5.654;2023-02-12T15:31:26;41.97;;;20.43;;
40433;SDS011;26146;51.114;5.654;2023-02-12T15:35:30;44.07;;;20.60;;
40433;SDS011;26146;51.114;5.654;2023-02-12T15:39:40;43.33;;;21.13;;
40433;SDS011;26146;51.114;5.654;2023-02-12T15:43:44;49.87;;;22.80;;
40433;SDS011;26146;51.114;5.654;2023-02-12T15:47:45;48.93;;;21.70;;
40433;SDS011;26146;51.114;5.654;2023-02-12T15:52:18;52.00;;;23.83;;
40433;SDS011;26146;51.114;5.654;2023-02-12T15:56:24;58.73;;;27.10;;
40433;SDS011;26146;51.114;5.654;2023-02-12T16:00:31;49.00;;;22.40;;
40433;SDS011;26146;51.114;5.654;2023-02-12T16:04:40;42.13;;;20.20;;
40433;SDS011;26146;51.114;5.654;2023-02-12T16:08:45;43.80;;;21.07;;
40433;SDS011;26146;51.114;5.654;2023-02-12T16:13:00;49.23;;;22.73;;
40433;SDS011;26146;51.114;5.654;2023-02-12T16:17:16;49.23;;;21.77;;
40433;SDS011;26146;51.114;5.654;2023-02-12T16:21:26;53.77;;;22.43;;
40433;SDS011;26146;51.114;5.654;2023-02-12T16:25:29;48.97;;;22.80;;
40433;SDS011;26146;51.114;5.654;2023-02-12T16:29:32;58.47;;;26.27;;
40433;SDS011;26146;51.114;5.654;2023-02-12T16:37:40;65.37;;;28.17;;
40433;SDS011;26146;51.114;5.654;2023-02-12T16:41:52;59.50;;;26.83;;
40433;SDS011;26146;51.114;5.654;2023-02-12T16:46:00;53.87;;;23.53;;
40433;SDS011;26146;51.114;5.654;2023-02-12T16:50:03;51.10;;;23.47;;
40433;SDS011;26146;51.114;5.654;2023-02-12T16:54:04;53.43;;;23.77;;
40433;SDS011;26146;51.114;5.654;2023-02-12T16:58:30;54.00;;;23.80;;
40433;SDS011;26146;51.114;5.654;2023-02-12T17:02:31;46.50;;;23.67;;
40433;SDS011;26146;51.114;5.654;2023-02-12T17:06:35;48.53;;;21.73;;
40433;SDS011;26146;51.114;5.654;2023-02-12T17:10:36;50.93;;;22.30;;
40433;SDS011;26146;51.114;5.654;2023-02-12T17:14:39;49.33;;;21.90;;
40433;SDS011;26146;51.114;5.654;2023-02-12T17:18:40;50.10;;;22.30;;
40433;SDS011;26146;51.114;5.654;2023-02-12T17:22:47;48.03;;;21.20;;
40433;SDS011;26146;51.114;5.654;2023-02-12T17:26:53;50.27;;;21.27;;
40433;SDS011;26146;51.114;5.654;2023-02-12T17:30:54;45.60;;;21.23;;
40433;SDS011;26146;51.114;5.654;2023-02-12T17:34:58;46.40;;;20.97;;
40433;SDS011;26146;51.114;5.654;2023-02-12T17:38:59;49.13;;;21.23;;
40433;SDS011;26146;51.114;5.654;2023-02-12T17:43:04;50.17;;;21.13;;
40433;SDS011;26146;51.114;5.654;2023-02-12T17:47:09;51.60;;;21.93;;
40433;SDS011;26146;51.114;5.654;2023-02-12T17:51:11;49.03;;;21.47;;
40433;SDS011;26146;51.114;5.654;2023-02-12T17:55:12;46.07;;;20.47;;
40433;SDS011;26146;51.114;5.654;2023-02-12T17:59:17;50.03;;;21.33;;
40433;SDS011;26146;51.114;5.654;2023-02-12T18:03:20;49.60;;;20.93;;
40433;SDS011;26146;51.114;5.654;2023-02-12T18:07:22;52.07;;;21.03;;
40433;SDS011;26146;51.114;5.654;2023-02-12T18:11:23;52.17;;;21.13;;
40433;SDS011;26146;51.114;5.654;2023-02-12T18:15:24;49.27;;;20.30;;
40433;SDS011;26146;51.114;5.654;2023-02-12T18:19:26;51.33;;;20.90;;
40433;SDS011;26146;51.114;5.654;2023-02-12T18:23:28;50.60;;;21.50;;
40433;SDS011;26146;51.114;5.654;2023-02-12T18:27:29;48.97;;;21.10;;
40433;SDS011;26146;51.114;5.654;2023-02-12T18:31:30;51.47;;;21.57;;
40433;SDS011;26146;51.114;5.654;2023-02-12T18:35:31;47.80;;;20.63;;
40433;SDS011;26146;51.114;5.654;2023-02-12T18:39:33;50.37;;;20.80;;
40433;SDS011;26146;51.114;5.654;2023-02-12T18:43:34;46.37;;;20.67;;
40433;SDS011;26146;51.114;5.654;2023-02-12T18:47:36;50.00;;;21.10;;
40433;SDS011;26146;51.114;5.654;2023-02-12T18:51:36;47.70;;;20.33;;
40433;SDS011;26146;51.114;5.654;2023-02-12T18:55:40;50.20;;;21.40;;
40433;SDS011;26146;51.114;5.654;2023-02-12T18:59:41;54.23;;;22.20;;
40433;SDS011;26146;51.114;5.654;2023-02-12T19:03:43;64.80;;;25.07;;
40433;SDS011;26146;51.114;5.654;2023-02-12T19:07:45;58.30;;;24.37;;
40433;SDS011;26146;51.114;5.654;2023-02-12T19:11:47;48.50;;;21.53;;
40433;SDS011;26146;51.114;5.654;2023-02-12T19:15:49;45.83;;;20.37;;
40433;SDS011;26146;51.114;5.654;2023-02-12T19:19:50;46.90;;;20.60;;
40433;SDS011;26146;51.114;5.654;2023-02-12T19:23:54;44.87;;;19.73;;
40433;SDS011;26146;51.114;5.654;2023-02-12T19:27:59;48.13;;;19.57;;
40433;SDS011;26146;51.114;5.654;2023-02-12T19:32:02;42.47;;;19.33;;
40433;SDS011;26146;51.114;5.654;2023-02-12T19:36:04;45.23;;;19.30;;
40433;SDS011;26146;51.114;5.654;2023-02-12T19:40:10;46.00;;;19.83;;
40433;SDS011;26146;51.114;5.654;2023-02-12T19:44:16;45.50;;;18.73;;
40433;SDS011;26146;51.114;5.654;2023-02-12T19:48:21;41.77;;;18.77;;
40433;SDS011;26146;51.114;5.654;2023-02-12T19:52:22;44.23;;;18.83;;
40433;SDS011;26146;51.114;5.654;2023-02-12T19:56:26;45.10;;;18.57;;
40433;SDS011;26146;51.114;5.654;2023-02-12T20:00:28;43.83;;;18.57;;
40433;SDS011;26146;51.114;5.654;2023-02-12T20:04:29;49.20;;;19.73;;
40433;SDS011;26146;51.114;5.654;2023-02-12T20:08:31;46.43;;;19.03;;
40433;SDS011;26146;51.114;5.654;2023-02-12T20:12:32;44.90;;;20.43;;
40433;SDS011;26146;51.114;5.654;2023-02-12T20:16:40;46.73;;;20.20;;
40433;SDS011;26146;51.114;5.654;2023-02-12T20:20:43;47.83;;;19.67;;
40433;SDS011;26146;51.114;5.654;2023-02-12T20:24:44;45.33;;;19.50;;
40433;SDS011;26146;51.114;5.654;2023-02-12T20:28:46;48.13;;;19.77;;
40433;SDS011;26146;51.114;5.654;2023-02-12T20:32:49;45.03;;;19.03;;
40433;SDS011;26146;51.114;5.654;2023-02-12T20:36:50;45.93;;;19.53;;
40433;SDS011;26146;51.114;5.654;2023-02-12T20:40:53;44.60;;;18.43;;
40433;SDS011;26146;51.114;5.654;2023-02-12T20:44:54;41.77;;;18.10;;
40433;SDS011;26146;51.114;5.654;2023-02-12T20:48:55;46.93;;;19.57;;
40433;SDS011;26146;51.114;5.654;2023-02-12T20:52:57;49.73;;;19.93;;
40433;SDS011;26146;51.114;5.654;2023-02-12T20:56:58;44.43;;;18.90;;
40433;SDS011;26146;51.114;5.654;2023-02-12T21:01:06;46.03;;;19.00;;
40433;SDS011;26146;51.114;5.654;2023-02-12T21:05:08;44.50;;;19.13;;
40433;SDS011;26146;51.114;5.654;2023-02-12T21:09:10;50.20;;;19.60;;
40433;SDS011;26146;51.114;5.654;2023-02-12T21:13:12;46.57;;;18.73;;
40433;SDS011;26146;51.114;5.654;2023-02-12T21:17:13;48.83;;;19.13;;
40433;SDS011;26146;51.114;5.654;2023-02-12T21:21:15;47.57;;;19.40;;
40433;SDS011;26146;51.114;5.654;2023-02-12T21:25:27;45.77;;;19.50;;
40433;SDS011;26146;51.114;5.654;2023-02-12T21:29:33;49.63;;;20.30;;
40433;SDS011;26146;51.114;5.654;2023-02-12T21:33:37;54.20;;;23.10;;
40433;SDS011;26146;51.114;5.654;2023-02-12T21:37:39;56.90;;;23.33;;
40433;SDS011;26146;51.114;5.654;2023-02-12T21:41:40;46.63;;;20.53;;
40433;SDS011;26146;51.114;5.654;2023-02-12T21:45:49;48.60;;;20.37;;
40433;SDS011;26146;51.114;5.654;2023-02-12T21:49:54;46.33;;;19.30;;
40433;SDS011;26146;51.114;5.654;2023-02-12T21:54:02;48.60;;;19.20;;
40433;SDS011;26146;51.114;5.654;2023-02-12T21:58:07;43.80;;;19.07;;
40433;SDS011;26146;51.114;5.654;2023-02-12T22:02:08;49.47;;;20.60;;
40433;SDS011;26146;51.114;5.654;2023-02-12T22:06:09;51.10;;;20.57;;
40433;SDS011;26146;51.114;5.654;2023-02-12T22:10:14;49.28;;;19.88;;
40433;SDS011;26146;51.114;5.654;2023-02-12T22:14:15;49.63;;;19.03;;
40433;SDS011;26146;51.114;5.654;2023-02-12T22:18:17;51.30;;;19.37;;
40433;SDS011;26146;51.114;5.654;2023-02-12T22:22:18;50.17;;;19.30;;
40433;SDS011;26146;51.114;5.654;2023-02-12T22:26:20;49.30;;;20.37;;
40433;SDS011;26146;51.114;5.654;2023-02-12T22:30:26;45.67;;;17.60;;
40433;SDS011;26146;51.114;5.654;2023-02-12T22:34:27;45.67;;;18.70;;
40433;SDS011;26146;51.114;5.654;2023-02-12T22:38:28;44.10;;;17.43;;
40433;SDS011;26146;51.114;5.654;2023-02-12T22:42:29;44.90;;;17.50;;
40433;SDS011;26146;51.114;5.654;2023-02-12T22:46:30;50.33;;;18.03;;
40433;SDS011;26146;51.114;5.654;2023-02-12T22:50:31;44.40;;;16.57;;
40433;SDS011;26146;51.114;5.654;2023-02-12T22:54:32;51.20;;;18.73;;
40433;SDS011;26146;51.114;5.654;2023-02-12T22:58:33;47.30;;;18.10;;
40433;SDS011;26146;51.114;5.654;2023-02-12T23:02:36;46.47;;;17.63;;
40433;SDS011;26146;51.114;5.654;2023-02-12T23:06:37;49.33;;;18.83;;
40433;SDS011;26146;51.114;5.654;2023-02-12T23:10:38;49.80;;;18.70;;
40433;SDS011;26146;51.114;5.654;2023-02-12T23:14:39;48.43;;;19.03;;
40433;SDS011;26146;51.114;5.654;2023-02-12T23:18:40;49.20;;;18.93;;
40433;SDS011;26146;51.114;5.654;2023-02-12T23:22:41;51.00;;;18.50;;
40433;SDS011;26146;51.114;5.654;2023-02-12T23:26:45;48.63;;;18.67;;
40433;SDS011;26146;51.114;5.654;2023-02-12T23:30:47;48.07;;;18.00;;
40433;SDS011;26146;51.114;5.654;2023-02-12T23:34:48;50.33;;;18.87;;
40433;SDS011;26146;51.114;5.654;2023-02-12T23:38:49;47.20;;;18.27;;
40433;SDS011;26146;51.114;5.654;2023-02-12T23:42:50;48.90;;;18.50;;
40433;SDS011;26146;51.114;5.654;2023-02-12T23:46:51;46.87;;;18.30;;
40433;SDS011;26146;51.114;5.654;2023-02-12T23:50:53;49.80;;;17.37;;
40433;SDS011;26146;51.114;5.654;2023-02-12T23:54:54;46.80;;;17.93;;
40433;SDS011;26146;51.114;5.654;2023-02-12T23:58:56;53.27;;;19.17;;
